LPMR

Monte Real Airport

Portugal
TAF LPMR 161703Z 1618/1718 35012KT 9999 FEW020 TEMPO 1618/1620 33012G22KT SCT020 PROB30 1700/1709 36005KT 2000 BR BKN004 TEMPO 1711/1718 33015G25KT
Issued Valid From Valid To
Jul-16 @ 17:03 UTC
(3 hours ago)
Jul-16 @ 18:00 UTC
(2 hours ago)
Jul-17 @ 18:00 UTC
(in 22 hours)
Jul-16 @ 18:00 to Jul-17 @ 18:00
TAF LPMR 161703Z 1618/1718 35012KT 9999 FEW020
Wind Visibility Clouds
350° at 12 knots 10,000+ meters
  • Few at 2,000' AGL
Temporary Jul-16 @ 18:00 to Jul-16 @ 20:00
TEMPO 1618/1620 33012G22KT SCT020
Wind Clouds
330° at 12 knots
 Gusting to 22 knots
  • Scattered at 2,000' AGL
Probable  (Probability 30%) Jul-17 @ 00:00 to Jul-17 @ 09:00
PROB30 1700/1709 36005KT 2000 BR BKN004
Wind Visibility Clouds Conditions
360° at 5 knots 1,996 meters
  • Broken at 400' AGL
  • Mist
Temporary Jul-17 @ 11:00 to Jul-17 @ 18:00
TEMPO 1711/1718 33015G25KT
Wind
330° at 15 knots
 Gusting to 25 knots
TAF LPMR 161703Z 1618/1718 35012KT 9999 FEW020 TEMPO 1618/1620 33012G22KT SCT020 PROB30 1700/1709 36005KT 2000 BR BKN004 TEMPO 1711/1718 33015G25KT
Issued Jul-16 @ 17:03 UTC
(3 hours ago)
Valid From Jul-16 @ 18:00 UTC
(2 hours ago)
Valid To Jul-17 @ 18:00 UTC
(in 22 hours)
Jul-16 @ 18:00 - Jul-17 @ 18:00
Wind Visibility
350° at 12 knots 10,000+ meters
Clouds
  • Few at 2,000' AGL
Temporary Jul-16 @ 18:00 - Jul-16 @ 20:00
Wind
330° at 12 knots
 Gusting to 22 knots
Clouds
  • Scattered at 2,000' AGL
Probability 30% Probable Jul-17 @ 00:00 - Jul-17 @ 09:00
Wind Visibility
360° at 5 knots 1,996 meters
Clouds
  • Broken at 400' AGL
Conditions
  • Mist
Temporary Jul-17 @ 11:00 - Jul-17 @ 18:00
Wind
330° at 15 knots
 Gusting to 25 knots